sensor_id;sensor_type;location;lat;lon;timestamp;P1;durP1;ratioP1;P2;durP2;ratioP2
14143;SDS011;7152;48.348;10.980;2023-08-17T00:01:47;7.28;;;6.68;;
14143;SDS011;7152;48.348;10.980;2023-08-17T00:04:13;6.78;;;6.28;;
14143;SDS011;7152;48.348;10.980;2023-08-17T00:06:39;7.60;;;6.90;;
14143;SDS011;7152;48.348;10.980;2023-08-17T00:09:05;7.35;;;6.65;;
14143;SDS011;7152;48.348;10.980;2023-08-17T00:11:32;7.15;;;6.47;;
14143;SDS011;7152;48.348;10.980;2023-08-17T00:13:59;6.57;;;6.05;;
14143;SDS011;7152;48.348;10.980;2023-08-17T00:16:25;6.68;;;6.10;;
14143;SDS011;7152;48.348;10.980;2023-08-17T00:18:51;7.80;;;7.10;;
14143;SDS011;7152;48.348;10.980;2023-08-17T00:21:17;7.00;;;6.30;;
14143;SDS011;7152;48.348;10.980;2023-08-17T00:23:43;7.20;;;6.50;;
14143;SDS011;7152;48.348;10.980;2023-08-17T00:26:08;7.57;;;6.93;;
14143;SDS011;7152;48.348;10.980;2023-08-17T00:28:35;7.50;;;6.80;;
14143;SDS011;7152;48.348;10.980;2023-08-17T00:31:01;7.30;;;6.70;;
14143;SDS011;7152;48.348;10.980;2023-08-17T00:33:27;7.73;;;6.83;;
14143;SDS011;7152;48.348;10.980;2023-08-17T00:35:53;8.67;;;6.90;;
14143;SDS011;7152;48.348;10.980;2023-08-17T00:38:19;7.43;;;6.83;;
14143;SDS011;7152;48.348;10.980;2023-08-17T00:40:46;8.20;;;7.57;;
14143;SDS011;7152;48.348;10.980;2023-08-17T00:43:12;8.13;;;7.37;;
14143;SDS011;7152;48.348;10.980;2023-08-17T00:45:38;8.13;;;7.32;;
14143;SDS011;7152;48.348;10.980;2023-08-17T00:48:04;8.40;;;7.30;;
14143;SDS011;7152;48.348;10.980;2023-08-17T00:50:33;7.83;;;6.93;;
14143;SDS011;7152;48.348;10.980;2023-08-17T00:53:01;8.23;;;7.57;;
14143;SDS011;7152;48.348;10.980;2023-08-17T00:55:27;8.43;;;7.67;;
14143;SDS011;7152;48.348;10.980;2023-08-17T00:57:54;7.63;;;7.03;;
14143;SDS011;7152;48.348;10.980;2023-08-17T01:00:21;8.37;;;7.57;;
14143;SDS011;7152;48.348;10.980;2023-08-17T01:02:49;8.37;;;7.30;;
14143;SDS011;7152;48.348;10.980;2023-08-17T01:05:16;8.80;;;8.00;;
14143;SDS011;7152;48.348;10.980;2023-08-17T01:07:42;9.03;;;8.27;;
14143;SDS011;7152;48.348;10.980;2023-08-17T01:10:08;8.80;;;8.10;;
14143;SDS011;7152;48.348;10.980;2023-08-17T01:17:40;9.43;;;8.63;;
14143;SDS011;7152;48.348;10.980;2023-08-17T01:20:11;9.17;;;8.23;;
14143;SDS011;7152;48.348;10.980;2023-08-17T01:22:40;9.03;;;8.33;;
14143;SDS011;7152;48.348;10.980;2023-08-17T01:25:08;10.03;;;9.13;;
14143;SDS011;7152;48.348;10.980;2023-08-17T01:27:40;10.77;;;9.87;;
14143;SDS011;7152;48.348;10.980;2023-08-17T01:30:09;10.40;;;9.60;;
14143;SDS011;7152;48.348;10.980;2023-08-17T01:32:45;9.60;;;8.80;;
14143;SDS011;7152;48.348;10.980;2023-08-17T01:35:30;9.97;;;9.10;;
14143;SDS011;7152;48.348;10.980;2023-08-17T01:38:09;11.83;;;10.50;;
14143;SDS011;7152;48.348;10.980;2023-08-17T01:40:39;10.83;;;9.93;;
14143;SDS011;7152;48.348;10.980;2023-08-17T01:43:07;11.20;;;10.10;;
14143;SDS011;7152;48.348;10.980;2023-08-17T01:45:35;10.17;;;9.37;;
14143;SDS011;7152;48.348;10.980;2023-08-17T01:48:01;11.60;;;10.50;;
14143;SDS011;7152;48.348;10.980;2023-08-17T01:50:27;9.77;;;8.87;;
14143;SDS011;7152;48.348;10.980;2023-08-17T01:52:53;9.20;;;8.40;;
14143;SDS011;7152;48.348;10.980;2023-08-17T01:55:20;10.07;;;9.07;;
14143;SDS011;7152;48.348;10.980;2023-08-17T01:57:46;13.77;;;12.37;;
14143;SDS011;7152;48.348;10.980;2023-08-17T02:00:13;12.17;;;10.97;;
14143;SDS011;7152;48.348;10.980;2023-08-17T02:02:41;12.00;;;10.83;;
14143;SDS011;7152;48.348;10.980;2023-08-17T02:05:07;11.20;;;10.10;;
14143;SDS011;7152;48.348;10.980;2023-08-17T02:07:33;12.27;;;11.10;;
14143;SDS011;7152;48.348;10.980;2023-08-17T02:09:59;11.40;;;10.30;;
14143;SDS011;7152;48.348;10.980;2023-08-17T02:12:25;10.23;;;9.30;;
14143;SDS011;7152;48.348;10.980;2023-08-17T02:14:51;10.90;;;9.97;;
14143;SDS011;7152;48.348;10.980;2023-08-17T02:17:17;10.37;;;9.50;;
14143;SDS011;7152;48.348;10.980;2023-08-17T02:19:44;11.50;;;10.30;;
14143;SDS011;7152;48.348;10.980;2023-08-17T02:22:12;10.47;;;9.57;;
14143;SDS011;7152;48.348;10.980;2023-08-17T02:24:38;10.93;;;10.00;;
14143;SDS011;7152;48.348;10.980;2023-08-17T02:27:04;10.37;;;9.47;;
14143;SDS011;7152;48.348;10.980;2023-08-17T02:29:30;10.93;;;9.90;;
14143;SDS011;7152;48.348;10.980;2023-08-17T02:31:55;9.70;;;8.77;;
14143;SDS011;7152;48.348;10.980;2023-08-17T02:34:21;10.23;;;9.23;;
14143;SDS011;7152;48.348;10.980;2023-08-17T02:36:47;10.60;;;9.70;;
14143;SDS011;7152;48.348;10.980;2023-08-17T02:39:13;10.07;;;9.27;;
14143;SDS011;7152;48.348;10.980;2023-08-17T02:41:39;11.83;;;10.73;;
14143;SDS011;7152;48.348;10.980;2023-08-17T02:44:04;12.03;;;10.87;;
14143;SDS011;7152;48.348;10.980;2023-08-17T02:46:30;11.87;;;10.77;;
14143;SDS011;7152;48.348;10.980;2023-08-17T02:48:56;12.67;;;11.53;;
14143;SDS011;7152;48.348;10.980;2023-08-17T02:51:23;11.67;;;10.60;;
14143;SDS011;7152;48.348;10.980;2023-08-17T02:53:48;11.73;;;10.63;;
14143;SDS011;7152;48.348;10.980;2023-08-17T02:56:14;11.60;;;10.60;;
14143;SDS011;7152;48.348;10.980;2023-08-17T02:58:40;11.03;;;10.13;;
14143;SDS011;7152;48.348;10.980;2023-08-17T03:01:06;11.97;;;10.97;;
14143;SDS011;7152;48.348;10.980;2023-08-17T03:03:33;12.17;;;11.03;;
14143;SDS011;7152;48.348;10.980;2023-08-17T03:05:59;11.83;;;10.77;;
14143;SDS011;7152;48.348;10.980;2023-08-17T03:08:25;12.97;;;11.87;;
14143;SDS011;7152;48.348;10.980;2023-08-17T03:10:52;13.13;;;11.93;;
14143;SDS011;7152;48.348;10.980;2023-08-17T03:13:17;12.53;;;11.33;;
14143;SDS011;7152;48.348;10.980;2023-08-17T03:15:43;12.53;;;11.47;;
14143;SDS011;7152;48.348;10.980;2023-08-17T03:18:09;13.20;;;12.10;;
14143;SDS011;7152;48.348;10.980;2023-08-17T03:20:37;13.60;;;12.40;;
14143;SDS011;7152;48.348;10.980;2023-08-17T03:23:03;14.17;;;12.87;;
14143;SDS011;7152;48.348;10.980;2023-08-17T03:25:33;14.30;;;12.90;;
14143;SDS011;7152;48.348;10.980;2023-08-17T03:27:59;14.77;;;13.57;;
14143;SDS011;7152;48.348;10.980;2023-08-17T03:30:25;14.80;;;13.60;;
14143;SDS011;7152;48.348;10.980;2023-08-17T03:32:52;14.50;;;13.20;;
14143;SDS011;7152;48.348;10.980;2023-08-17T03:35:18;16.30;;;14.80;;
14143;SDS011;7152;48.348;10.980;2023-08-17T03:37:44;17.90;;;16.17;;
14143;SDS011;7152;48.348;10.980;2023-08-17T03:40:11;15.60;;;14.20;;
14143;SDS011;7152;48.348;10.980;2023-08-17T03:42:37;15.60;;;14.17;;
14143;SDS011;7152;48.348;10.980;2023-08-17T03:45:03;15.37;;;13.97;;
14143;SDS011;7152;48.348;10.980;2023-08-17T03:47:29;16.00;;;14.70;;
14143;SDS011;7152;48.348;10.980;2023-08-17T03:49:55;14.57;;;13.27;;
14143;SDS011;7152;48.348;10.980;2023-08-17T03:52:21;14.77;;;13.37;;
14143;SDS011;7152;48.348;10.980;2023-08-17T03:54:47;15.07;;;13.87;;
14143;SDS011;7152;48.348;10.980;2023-08-17T03:57:13;14.70;;;13.50;;
14143;SDS011;7152;48.348;10.980;2023-08-17T03:59:39;15.37;;;14.03;;
14143;SDS011;7152;48.348;10.980;2023-08-17T04:02:08;15.43;;;14.13;;
14143;SDS011;7152;48.348;10.980;2023-08-17T04:04:34;16.73;;;15.23;;
14143;SDS011;7152;48.348;10.980;2023-08-17T04:07:00;15.47;;;14.03;;
14143;SDS011;7152;48.348;10.980;2023-08-17T04:09:25;15.20;;;14.00;;
14143;SDS011;7152;48.348;10.980;2023-08-17T04:11:52;15.07;;;13.87;;
14143;SDS011;7152;48.348;10.980;2023-08-17T04:14:17;16.23;;;14.73;;
14143;SDS011;7152;48.348;10.980;2023-08-17T04:16:45;16.20;;;14.80;;
14143;SDS011;7152;48.348;10.980;2023-08-17T04:19:11;12.23;;;11.03;;
14143;SDS011;7152;48.348;10.980;2023-08-17T04:21:36;12.07;;;10.87;;
14143;SDS011;7152;48.348;10.980;2023-08-17T04:24:03;12.13;;;11.17;;
14143;SDS011;7152;48.348;10.980;2023-08-17T04:26:29;13.13;;;12.00;;
14143;SDS011;7152;48.348;10.980;2023-08-17T04:28:55;12.50;;;11.40;;
14143;SDS011;7152;48.348;10.980;2023-08-17T04:31:20;14.00;;;12.60;;
14143;SDS011;7152;48.348;10.980;2023-08-17T04:33:54;14.03;;;12.73;;
14143;SDS011;7152;48.348;10.980;2023-08-17T04:36:20;14.93;;;13.60;;
14143;SDS011;7152;48.348;10.980;2023-08-17T04:38:45;14.90;;;13.60;;
14143;SDS011;7152;48.348;10.980;2023-08-17T04:41:11;15.67;;;14.07;;
14143;SDS011;7152;48.348;10.980;2023-08-17T04:43:37;15.40;;;14.10;;
14143;SDS011;7152;48.348;10.980;2023-08-17T04:46:03;15.53;;;13.93;;
14143;SDS011;7152;48.348;10.980;2023-08-17T04:48:29;14.80;;;13.60;;
14143;SDS011;7152;48.348;10.980;2023-08-17T04:50:55;14.30;;;13.10;;
14143;SDS011;7152;48.348;10.980;2023-08-17T04:53:21;13.60;;;12.40;;
14143;SDS011;7152;48.348;10.980;2023-08-17T04:55:48;14.57;;;13.27;;
14143;SDS011;7152;48.348;10.980;2023-08-17T04:58:14;14.67;;;13.27;;
14143;SDS011;7152;48.348;10.980;2023-08-17T05:00:40;14.47;;;13.17;;
14143;SDS011;7152;48.348;10.980;2023-08-17T05:03:06;14.37;;;13.07;;
14143;SDS011;7152;48.348;10.980;2023-08-17T05:05:37;13.43;;;12.33;;
14143;SDS011;7152;48.348;10.980;2023-08-17T05:08:07;14.70;;;13.43;;
14143;SDS011;7152;48.348;10.980;2023-08-17T05:10:33;13.93;;;12.77;;
14143;SDS011;7152;48.348;10.980;2023-08-17T05:12:59;15.17;;;13.77;;
14143;SDS011;7152;48.348;10.980;2023-08-17T05:15:27;14.70;;;13.30;;
14143;SDS011;7152;48.348;10.980;2023-08-17T05:17:54;15.27;;;13.90;;
14143;SDS011;7152;48.348;10.980;2023-08-17T05:20:21;15.27;;;13.87;;
14143;SDS011;7152;48.348;10.980;2023-08-17T05:22:47;14.77;;;13.50;;
14143;SDS011;7152;48.348;10.980;2023-08-17T05:25:13;15.53;;;14.17;;
14143;SDS011;7152;48.348;10.980;2023-08-17T05:27:40;15.20;;;14.00;;
14143;SDS011;7152;48.348;10.980;2023-08-17T05:30:07;14.60;;;13.30;;
14143;SDS011;7152;48.348;10.980;2023-08-17T05:32:33;15.73;;;14.13;;
14143;SDS011;7152;48.348;10.980;2023-08-17T05:34:59;14.40;;;13.13;;
14143;SDS011;7152;48.348;10.980;2023-08-17T05:37:25;14.50;;;13.20;;
14143;SDS011;7152;48.348;10.980;2023-08-17T05:39:51;15.10;;;13.70;;
14143;SDS011;7152;48.348;10.980;2023-08-17T05:42:17;14.37;;;13.20;;
14143;SDS011;7152;48.348;10.980;2023-08-17T05:44:44;13.97;;;12.67;;
14143;SDS011;7152;48.348;10.980;2023-08-17T05:47:10;14.77;;;13.47;;
14143;SDS011;7152;48.348;10.980;2023-08-17T05:49:36;14.30;;;13.10;;
14143;SDS011;7152;48.348;10.980;2023-08-17T05:52:03;14.83;;;13.57;;
14143;SDS011;7152;48.348;10.980;2023-08-17T05:54:32;15.00;;;13.70;;
14143;SDS011;7152;48.348;10.980;2023-08-17T05:56:57;15.37;;;13.90;;
14143;SDS011;7152;48.348;10.980;2023-08-17T05:59:23;16.37;;;14.97;;
14143;SDS011;7152;48.348;10.980;2023-08-17T06:01:49;17.53;;;16.00;;
14143;SDS011;7152;48.348;10.980;2023-08-17T06:04:15;16.67;;;15.27;;
14143;SDS011;7152;48.348;10.980;2023-08-17T06:06:41;16.57;;;15.07;;
14143;SDS011;7152;48.348;10.980;2023-08-17T06:09:06;18.70;;;16.90;;
14143;SDS011;7152;48.348;10.980;2023-08-17T06:11:34;17.83;;;16.13;;
14143;SDS011;7152;48.348;10.980;2023-08-17T06:13:59;19.07;;;17.37;;
14143;SDS011;7152;48.348;10.980;2023-08-17T06:16:25;18.37;;;16.73;;
14143;SDS011;7152;48.348;10.980;2023-08-17T06:18:51;17.10;;;15.50;;
14143;SDS011;7152;48.348;10.980;2023-08-17T06:21:17;17.77;;;15.90;;
14143;SDS011;7152;48.348;10.980;2023-08-17T06:23:43;18.87;;;17.17;;
14143;SDS011;7152;48.348;10.980;2023-08-17T06:26:09;17.20;;;15.57;;
14143;SDS011;7152;48.348;10.980;2023-08-17T06:28:35;18.03;;;16.33;;
14143;SDS011;7152;48.348;10.980;2023-08-17T06:31:01;19.37;;;17.57;;
14143;SDS011;7152;48.348;10.980;2023-08-17T06:33:26;20.90;;;18.80;;
14143;SDS011;7152;48.348;10.980;2023-08-17T06:35:52;21.50;;;19.50;;
14143;SDS011;7152;48.348;10.980;2023-08-17T06:38:18;23.27;;;21.07;;
14143;SDS011;7152;48.348;10.980;2023-08-17T06:40:45;24.77;;;22.33;;
14143;SDS011;7152;48.348;10.980;2023-08-17T06:43:11;21.27;;;19.47;;
14143;SDS011;7152;48.348;10.980;2023-08-17T06:45:37;21.67;;;19.67;;
14143;SDS011;7152;48.348;10.980;2023-08-17T06:48:03;21.17;;;19.27;;
14143;SDS011;7152;48.348;10.980;2023-08-17T06:50:29;22.93;;;20.73;;
14143;SDS011;7152;48.348;10.980;2023-08-17T06:52:55;20.20;;;18.40;;
14143;SDS011;7152;48.348;10.980;2023-08-17T06:55:21;22.87;;;20.77;;
14143;SDS011;7152;48.348;10.980;2023-08-17T06:57:47;23.40;;;21.23;;
14143;SDS011;7152;48.348;10.980;2023-08-17T07:00:17;23.67;;;21.40;;
14143;SDS011;7152;48.348;10.980;2023-08-17T07:02:46;23.53;;;21.37;;
14143;SDS011;7152;48.348;10.980;2023-08-17T07:05:13;22.63;;;20.53;;
14143;SDS011;7152;48.348;10.980;2023-08-17T07:07:40;22.93;;;20.77;;
14143;SDS011;7152;48.348;10.980;2023-08-17T07:10:07;22.50;;;20.60;;
14143;SDS011;7152;48.348;10.980;2023-08-17T07:12:37;20.40;;;18.60;;
14143;SDS011;7152;48.348;10.980;2023-08-17T07:15:03;23.27;;;20.97;;
14143;SDS011;7152;48.348;10.980;2023-08-17T07:17:31;22.97;;;20.87;;
14143;SDS011;7152;48.348;10.980;2023-08-17T07:19:57;22.50;;;20.50;;
14143;SDS011;7152;48.348;10.980;2023-08-17T07:22:22;22.20;;;20.30;;
14143;SDS011;7152;48.348;10.980;2023-08-17T07:24:48;20.80;;;19.00;;
14143;SDS011;7152;48.348;10.980;2023-08-17T07:27:14;20.23;;;18.53;;
14143;SDS011;7152;48.348;10.980;2023-08-17T07:29:40;20.83;;;19.07;;
14143;SDS011;7152;48.348;10.980;2023-08-17T07:32:06;20.05;;;18.30;;
14143;SDS011;7152;48.348;10.980;2023-08-17T07:34:38;21.57;;;19.60;;
14143;SDS011;7152;48.348;10.980;2023-08-17T07:37:04;20.27;;;18.60;;
14143;SDS011;7152;48.348;10.980;2023-08-17T07:39:31;21.05;;;19.17;;
14143;SDS011;7152;48.348;10.980;2023-08-17T07:41:57;21.20;;;19.27;;
14143;SDS011;7152;48.348;10.980;2023-08-17T07:44:23;20.33;;;18.48;;
14143;SDS011;7152;48.348;10.980;2023-08-17T07:46:49;19.20;;;17.60;;
14143;SDS011;7152;48.348;10.980;2023-08-17T07:49:16;20.25;;;18.45;;
14143;SDS011;7152;48.348;10.980;2023-08-17T07:51:42;20.02;;;18.33;;
14143;SDS011;7152;48.348;10.980;2023-08-17T07:54:08;19.00;;;17.20;;
14143;SDS011;7152;48.348;10.980;2023-08-17T07:56:34;17.30;;;15.77;;
14143;SDS011;7152;48.348;10.980;2023-08-17T07:58:59;16.52;;;15.07;;
14143;SDS011;7152;48.348;10.980;2023-08-17T08:01:25;19.13;;;17.25;;
14143;SDS011;7152;48.348;10.980;2023-08-17T08:03:51;15.60;;;14.30;;
14143;SDS011;7152;48.348;10.980;2023-08-17T08:06:17;16.30;;;14.88;;
14143;SDS011;7152;48.348;10.980;2023-08-17T08:08:45;16.30;;;14.90;;
14143;SDS011;7152;48.348;10.980;2023-08-17T08:11:11;16.10;;;14.70;;
14143;SDS011;7152;48.348;10.980;2023-08-17T08:13:37;15.77;;;14.43;;
14143;SDS011;7152;48.348;10.980;2023-08-17T08:16:03;17.52;;;15.93;;
14143;SDS011;7152;48.348;10.980;2023-08-17T08:18:29;16.00;;;14.60;;
14143;SDS011;7152;48.348;10.980;2023-08-17T08:20:55;14.80;;;13.55;;
14143;SDS011;7152;48.348;10.980;2023-08-17T08:23:21;15.35;;;14.15;;
14143;SDS011;7152;48.348;10.980;2023-08-17T08:25:47;15.25;;;14.00;;
14143;SDS011;7152;48.348;10.980;2023-08-17T08:28:12;15.98;;;14.57;;
14143;SDS011;7152;48.348;10.980;2023-08-17T08:30:38;16.70;;;15.20;;
14143;SDS011;7152;48.348;10.980;2023-08-17T08:33:04;17.17;;;15.70;;
14143;SDS011;7152;48.348;10.980;2023-08-17T08:35:30;17.88;;;16.27;;
14143;SDS011;7152;48.348;10.980;2023-08-17T08:37:58;15.48;;;14.25;;
14143;SDS011;7152;48.348;10.980;2023-08-17T08:40:28;16.27;;;14.82;;
14143;SDS011;7152;48.348;10.980;2023-08-17T08:42:55;13.30;;;12.10;;
14143;SDS011;7152;48.348;10.980;2023-08-17T08:45:22;14.88;;;13.50;;
14143;SDS011;7152;48.348;10.980;2023-08-17T08:47:48;12.85;;;11.60;;
14143;SDS011;7152;48.348;10.980;2023-08-17T08:50:19;12.68;;;11.57;;
14143;SDS011;7152;48.348;10.980;2023-08-17T08:52:53;14.30;;;13.18;;
14143;SDS011;7152;48.348;10.980;2023-08-17T08:55:29;14.55;;;13.35;;
14143;SDS011;7152;48.348;10.980;2023-08-17T08:57:59;12.63;;;11.40;;
14143;SDS011;7152;48.348;10.980;2023-08-17T09:00:26;17.10;;;15.70;;
14143;SDS011;7152;48.348;10.980;2023-08-17T09:02:52;14.27;;;13.07;;
14143;SDS011;7152;48.348;10.980;2023-08-17T09:05:19;15.05;;;13.75;;
14143;SDS011;7152;48.348;10.980;2023-08-17T09:07:48;14.60;;;13.20;;
14143;SDS011;7152;48.348;10.980;2023-08-17T09:10:14;13.95;;;12.75;;
14143;SDS011;7152;48.348;10.980;2023-08-17T09:12:45;13.40;;;12.20;;
14143;SDS011;7152;48.348;10.980;2023-08-17T09:15:12;12.88;;;11.77;;
14143;SDS011;7152;48.348;10.980;2023-08-17T09:17:38;13.88;;;12.38;;
14143;SDS011;7152;48.348;10.980;2023-08-17T09:20:04;11.88;;;10.77;;
14143;SDS011;7152;48.348;10.980;2023-08-17T09:25:12;11.05;;;10.02;;
14143;SDS011;7152;48.348;10.980;2023-08-17T09:27:48;12.43;;;11.43;;
14143;SDS011;7152;48.348;10.980;2023-08-17T09:30:14;10.93;;;10.02;;
14143;SDS011;7152;48.348;10.980;2023-08-17T09:32:40;11.10;;;10.20;;
14143;SDS011;7152;48.348;10.980;2023-08-17T09:35:07;8.40;;;7.80;;
14143;SDS011;7152;48.348;10.980;2023-08-17T09:37:33;8.43;;;7.80;;
14143;SDS011;7152;48.348;10.980;2023-08-17T09:39:59;9.30;;;8.60;;
14143;SDS011;7152;48.348;10.980;2023-08-17T09:42:26;9.75;;;8.85;;
14143;SDS011;7152;48.348;10.980;2023-08-17T09:44:53;8.18;;;7.38;;
14143;SDS011;7152;48.348;10.980;2023-08-17T09:47:19;10.85;;;9.80;;
14143;SDS011;7152;48.348;10.980;2023-08-17T09:49:50;10.05;;;9.15;;
14143;SDS011;7152;48.348;10.980;2023-08-17T09:52:23;10.32;;;9.63;;
14143;SDS011;7152;48.348;10.980;2023-08-17T09:54:52;9.05;;;8.25;;
14143;SDS011;7152;48.348;10.980;2023-08-17T09:57:19;9.68;;;8.73;;
14143;SDS011;7152;48.348;10.980;2023-08-17T09:59:49;8.48;;;7.68;;
14143;SDS011;7152;48.348;10.980;2023-08-17T10:02:19;9.18;;;8.30;;
14143;SDS011;7152;48.348;10.980;2023-08-17T10:04:49;10.05;;;9.25;;
14143;SDS011;7152;48.348;10.980;2023-08-17T10:07:21;9.85;;;9.05;;
14143;SDS011;7152;48.348;10.980;2023-08-17T10:09:56;10.40;;;9.50;;
14143;SDS011;7152;48.348;10.980;2023-08-17T10:12:28;7.85;;;7.25;;
14143;SDS011;7152;48.348;10.980;2023-08-17T10:15:07;8.73;;;7.93;;
14143;SDS011;7152;48.348;10.980;2023-08-17T10:17:49;7.20;;;6.53;;
14143;SDS011;7152;48.348;10.980;2023-08-17T10:20:26;8.85;;;8.10;;
14143;SDS011;7152;48.348;10.980;2023-08-17T10:25:28;7.30;;;6.75;;
14143;SDS011;7152;48.348;10.980;2023-08-17T10:27:57;8.05;;;7.22;;
14143;SDS011;7152;48.348;10.980;2023-08-17T10:30:25;7.30;;;6.70;;
14143;SDS011;7152;48.348;10.980;2023-08-17T10:32:52;7.43;;;6.93;;
14143;SDS011;7152;48.348;10.980;2023-08-17T10:35:18;7.13;;;6.47;;
14143;SDS011;7152;48.348;10.980;2023-08-17T10:37:44;7.70;;;7.13;;
14143;SDS011;7152;48.348;10.980;2023-08-17T10:40:11;6.47;;;6.00;;
14143;SDS011;7152;48.348;10.980;2023-08-17T10:42:40;7.22;;;6.57;;
14143;SDS011;7152;48.348;10.980;2023-08-17T10:47:47;7.35;;;6.65;;
14143;SDS011;7152;48.348;10.980;2023-08-17T10:50:23;6.43;;;6.00;;
14143;SDS011;7152;48.348;10.980;2023-08-17T10:52:53;6.10;;;5.60;;
14143;SDS011;7152;48.348;10.980;2023-08-17T10:55:34;7.05;;;6.45;;
14143;SDS011;7152;48.348;10.980;2023-08-17T10:58:07;5.32;;;4.85;;
14143;SDS011;7152;48.348;10.980;2023-08-17T11:00:35;5.07;;;4.68;;
14143;SDS011;7152;48.348;10.980;2023-08-17T11:11:16;5.78;;;5.35;;
14143;SDS011;7152;48.348;10.980;2023-08-17T11:13:46;6.00;;;5.60;;
14143;SDS011;7152;48.348;10.980;2023-08-17T11:16:13;6.13;;;5.53;;
14143;SDS011;7152;48.348;10.980;2023-08-17T11:18:43;6.47;;;5.97;;
14143;SDS011;7152;48.348;10.980;2023-08-17T11:21:13;6.22;;;5.70;;
14143;SDS011;7152;48.348;10.980;2023-08-17T11:23:40;6.05;;;5.53;;
14143;SDS011;7152;48.348;10.980;2023-08-17T11:26:06;6.80;;;5.38;;
14143;SDS011;7152;48.348;10.980;2023-08-17T11:28:33;5.70;;;5.25;;
14143;SDS011;7152;48.348;10.980;2023-08-17T11:31:03;6.15;;;5.57;;
14143;SDS011;7152;48.348;10.980;2023-08-17T11:33:34;5.65;;;5.15;;
14143;SDS011;7152;48.348;10.980;2023-08-17T11:36:05;6.03;;;5.47;;
14143;SDS011;7152;48.348;10.980;2023-08-17T11:38:33;5.25;;;4.85;;
14143;SDS011;7152;48.348;10.980;2023-08-17T11:41:00;5.00;;;4.50;;
14143;SDS011;7152;48.348;10.980;2023-08-17T11:43:28;4.88;;;4.53;;
14143;SDS011;7152;48.348;10.980;2023-08-17T11:45:57;4.85;;;4.30;;
14143;SDS011;7152;48.348;10.980;2023-08-17T11:48:26;5.13;;;4.72;;
14143;SDS011;7152;48.348;10.980;2023-08-17T11:50:52;4.80;;;4.40;;
14143;SDS011;7152;48.348;10.980;2023-08-17T11:53:20;5.43;;;4.63;;
14143;SDS011;7152;48.348;10.980;2023-08-17T11:55:49;4.20;;;3.80;;
14143;SDS011;7152;48.348;10.980;2023-08-17T11:58:15;4.20;;;3.90;;
14143;SDS011;7152;48.348;10.980;2023-08-17T12:00:42;4.40;;;4.05;;
14143;SDS011;7152;48.348;10.980;2023-08-17T12:03:15;3.85;;;3.55;;
14143;SDS011;7152;48.348;10.980;2023-08-17T12:05:41;5.22;;;3.50;;
14143;SDS011;7152;48.348;10.980;2023-08-17T12:08:08;4.32;;;3.92;;
14143;SDS011;7152;48.348;10.980;2023-08-17T12:10:36;4.10;;;3.80;;
14143;SDS011;7152;48.348;10.980;2023-08-17T12:13:05;3.95;;;3.65;;
14143;SDS011;7152;48.348;10.980;2023-08-17T12:15:38;4.10;;;3.78;;
14143;SDS011;7152;48.348;10.980;2023-08-17T12:18:05;3.78;;;3.53;;
14143;SDS011;7152;48.348;10.980;2023-08-17T12:20:34;3.47;;;3.28;;
14143;SDS011;7152;48.348;10.980;2023-08-17T12:23:06;4.30;;;4.00;;
14143;SDS011;7152;48.348;10.980;2023-08-17T12:25:32;3.63;;;3.30;;
14143;SDS011;7152;48.348;10.980;2023-08-17T12:28:00;3.97;;;3.67;;
14143;SDS011;7152;48.348;10.980;2023-08-17T12:30:28;3.10;;;2.90;;
14143;SDS011;7152;48.348;10.980;2023-08-17T12:32:56;4.15;;;3.85;;
14143;SDS011;7152;48.348;10.980;2023-08-17T12:35:25;3.78;;;3.05;;
14143;SDS011;7152;48.348;10.980;2023-08-17T12:37:52;4.05;;;3.15;;
14143;SDS011;7152;48.348;10.980;2023-08-17T12:40:19;2.70;;;2.50;;
14143;SDS011;7152;48.348;10.980;2023-08-17T12:42:48;3.47;;;3.28;;
14143;SDS011;7152;48.348;10.980;2023-08-17T12:45:14;3.80;;;3.03;;
14143;SDS011;7152;48.348;10.980;2023-08-17T12:47:41;4.22;;;3.60;;
14143;SDS011;7152;48.348;10.980;2023-08-17T12:50:07;4.00;;;3.70;;
14143;SDS011;7152;48.348;10.980;2023-08-17T12:52:33;4.07;;;3.63;;
14143;SDS011;7152;48.348;10.980;2023-08-17T12:54:59;3.58;;;3.25;;
14143;SDS011;7152;48.348;10.980;2023-08-17T12:57:28;4.10;;;3.80;;
14143;SDS011;7152;48.348;10.980;2023-08-17T12:59:56;4.53;;;3.88;;
14143;SDS011;7152;48.348;10.980;2023-08-17T13:02:23;3.90;;;3.53;;
14143;SDS011;7152;48.348;10.980;2023-08-17T13:04:48;3.75;;;3.45;;
14143;SDS011;7152;48.348;10.980;2023-08-17T13:07:14;3.75;;;3.35;;
14143;SDS011;7152;48.348;10.980;2023-08-17T13:09:41;4.43;;;3.75;;
14143;SDS011;7152;48.348;10.980;2023-08-17T13:12:07;5.22;;;4.22;;
14143;SDS011;7152;48.348;10.980;2023-08-17T13:14:36;4.65;;;4.25;;
14143;SDS011;7152;48.348;10.980;2023-08-17T13:17:02;3.42;;;3.22;;
14143;SDS011;7152;48.348;10.980;2023-08-17T13:19:28;3.38;;;3.10;;
14143;SDS011;7152;48.348;10.980;2023-08-17T13:21:54;4.20;;;3.80;;
14143;SDS011;7152;48.348;10.980;2023-08-17T13:24:20;4.22;;;3.83;;
14143;SDS011;7152;48.348;10.980;2023-08-17T13:26:45;3.78;;;3.47;;
14143;SDS011;7152;48.348;10.980;2023-08-17T13:29:11;4.05;;;3.75;;
14143;SDS011;7152;48.348;10.980;2023-08-17T13:31:43;3.88;;;3.55;;
14143;SDS011;7152;48.348;10.980;2023-08-17T13:34:08;4.30;;;3.80;;
14143;SDS011;7152;48.348;10.980;2023-08-17T13:36:39;4.95;;;3.90;;
14143;SDS011;7152;48.348;10.980;2023-08-17T13:39:06;4.15;;;3.85;;
14143;SDS011;7152;48.348;10.980;2023-08-17T13:41:32;4.00;;;3.70;;
14143;SDS011;7152;48.348;10.980;2023-08-17T13:43:57;3.90;;;3.60;;
14143;SDS011;7152;48.348;10.980;2023-08-17T13:46:26;3.72;;;3.50;;
14143;SDS011;7152;48.348;10.980;2023-08-17T13:48:51;3.92;;;3.53;;
14143;SDS011;7152;48.348;10.980;2023-08-17T13:51:19;4.00;;;3.70;;
14143;SDS011;7152;48.348;10.980;2023-08-17T13:53:45;4.10;;;3.72;;
14143;SDS011;7152;48.348;10.980;2023-08-17T13:56:11;4.20;;;3.67;;
14143;SDS011;7152;48.348;10.980;2023-08-17T13:58:39;3.70;;;3.40;;
14143;SDS011;7152;48.348;10.980;2023-08-17T14:01:05;4.03;;;3.60;;
14143;SDS011;7152;48.348;10.980;2023-08-17T14:03:30;4.60;;;4.00;;
14143;SDS011;7152;48.348;10.980;2023-08-17T14:05:56;6.57;;;3.80;;
14143;SDS011;7152;48.348;10.980;2023-08-17T14:08:22;4.20;;;3.70;;
14143;SDS011;7152;48.348;10.980;2023-08-17T14:10:51;3.88;;;3.55;;
14143;SDS011;7152;48.348;10.980;2023-08-17T14:13:16;4.15;;;3.85;;
14143;SDS011;7152;48.348;10.980;2023-08-17T14:15:45;4.10;;;3.80;;
14143;SDS011;7152;48.348;10.980;2023-08-17T14:18:11;4.95;;;4.50;;
14143;SDS011;7152;48.348;10.980;2023-08-17T14:20:36;4.28;;;3.97;;
14143;SDS011;7152;48.348;10.980;2023-08-17T14:23:02;4.32;;;3.92;;
14143;SDS011;7152;48.348;10.980;2023-08-17T14:25:31;5.65;;;3.92;;
14143;SDS011;7152;48.348;10.980;2023-08-17T14:27:57;4.07;;;3.67;;
14143;SDS011;7152;48.348;10.980;2023-08-17T14:30:24;4.03;;;3.72;;
14143;SDS011;7152;48.348;10.980;2023-08-17T14:32:51;3.90;;;3.60;;
14143;SDS011;7152;48.348;10.980;2023-08-17T14:35:17;4.10;;;3.78;;
14143;SDS011;7152;48.348;10.980;2023-08-17T14:37:43;3.38;;;3.17;;
14143;SDS011;7152;48.348;10.980;2023-08-17T14:40:09;3.63;;;3.22;;
14143;SDS011;7152;48.348;10.980;2023-08-17T14:42:37;4.03;;;3.67;;
14143;SDS011;7152;48.348;10.980;2023-08-17T14:45:06;3.78;;;3.47;;
14143;SDS011;7152;48.348;10.980;2023-08-17T14:47:32;4.70;;;3.25;;
14143;SDS011;7152;48.348;10.980;2023-08-17T14:49:58;4.95;;;3.40;;
14143;SDS011;7152;48.348;10.980;2023-08-17T14:52:24;3.80;;;3.50;;
14143;SDS011;7152;48.348;10.980;2023-08-17T14:54:51;3.70;;;3.40;;